LICT/TPS METAR and TAF weather

Enter ICAO airport designator
Station Type Date Time Source
LICT METAR 2018/12/12 06:55 UTC NOAA

LICT 120655Z 13006KT 9999 FEW015 SCT026 10/09 Q1018


Station Type Date Time Source
LICT Decoded METAR 2018/12/12 06:55 UTC NOAA

Trapani / Birgi, Italy (LICT) 37-55N 012-30E 14M
Dec 12, 2018 - 01:55 AM EST / 2018.12.12 0655 UTC
Wind: from the SE (130 degrees) at 7 MPH (6 KT):0
Visibility: greater than 7 mile(s):0
Sky conditions: partly cloudy
Temperature: 50 F (10 C)
Dew Point: 48 F (9 C)
Relative Humidity: 93%
Pressure (altimeter): 30.06 in. Hg (1018 hPa)
ob: LICT 120655Z 13006KT 9999 FEW015 SCT026 10/09 Q1018
cycle: 7

Station Type Date Time Source
LICT TAF 2018/09/10 09:24 UTC NOAA

TAF TAF LICT 100800Z 1009/1021 18010KT 9999 FEW020
BECMG 1912/1914 32010KT


Example: see airport list